createdAt,value
2019-05-22T00:00:17.774Z,14.87
2019-05-22T00:02:47.779Z,14.87
2019-05-22T00:05:18.271Z,15.70
2019-05-22T00:07:49.136Z,15.73
2019-05-22T00:10:22.559Z,16.73
2019-05-22T00:12:53.909Z,15.20
2019-05-22T00:15:24.715Z,16.87
2019-05-22T00:17:54.567Z,17.00
2019-05-22T00:20:25.853Z,17.57
2019-05-22T00:22:55.305Z,17.60
2019-05-22T00:25:29.132Z,19.03
2019-05-22T00:27:59.888Z,18.17
2019-05-22T00:30:31.583Z,16.70
2019-05-22T00:33:01.234Z,18.37
2019-05-22T00:35:31.681Z,18.20
2019-05-22T00:38:01.860Z,17.53
2019-05-22T00:40:32.457Z,17.30
2019-05-22T00:43:05.518Z,18.40
2019-05-22T00:45:31.984Z,18.10
2019-05-22T00:48:03.010Z,18.70
2019-05-22T00:50:41.074Z,18.77
2019-05-22T00:53:30.376Z,17.97
2019-05-22T00:56:00.868Z,17.23
2019-05-22T00:58:34.228Z,16.30
2019-05-22T01:01:04.741Z,15.60
2019-05-22T01:03:34.211Z,14.50
2019-05-22T01:06:04.795Z,14.10
2019-05-22T01:08:37.351Z,12.07
2019-05-22T01:11:07.862Z,10.97
2019-05-22T01:13:37.627Z,11.53
2019-05-22T01:16:08.517Z,10.63
2019-05-22T01:18:39.216Z,9.97
2019-05-22T01:21:09.884Z,8.67
2019-05-22T01:23:40.037Z,8.97
2019-05-22T01:26:11.571Z,8.53
2019-05-22T01:28:41.016Z,8.00
2019-05-22T01:31:15.371Z,7.87
2019-05-22T01:33:48.859Z,7.70
2019-05-22T01:36:20.746Z,7.80
2019-05-22T01:38:49.923Z,6.93
2019-05-22T01:41:37.501Z,7.00
2019-05-22T01:44:07.350Z,6.27
2019-05-22T01:46:39.961Z,5.67
2019-05-22T01:49:12.844Z,5.17
2019-05-22T01:51:42.736Z,4.30
2019-05-22T01:54:11.828Z,4.33
2019-05-22T01:56:42.341Z,3.90
2019-05-22T01:59:12.597Z,3.67
2019-05-22T02:01:42.310Z,4.07
2019-05-22T02:04:14.875Z,4.47
2019-05-22T02:06:44.817Z,4.47
2019-05-22T02:09:28.978Z,4.10
2019-05-22T02:12:05.357Z,5.60
2019-05-22T02:14:35.120Z,8.17
2019-05-22T02:17:05.728Z,8.67
2019-05-22T02:19:35.488Z,8.77
2019-05-22T02:22:06.372Z,8.07
2019-05-22T02:24:36.932Z,9.00
2019-05-22T02:27:06.456Z,10.30
2019-05-22T02:29:35.927Z,12.03
2019-05-22T02:32:07.517Z,13.27
2019-05-22T02:34:37.476Z,12.73
2019-05-22T02:37:07.702Z,15.07
2019-05-22T02:39:39.025Z,13.87
2019-05-22T02:42:15.624Z,16.43
2019-05-22T02:44:45.965Z,15.27
2019-05-22T02:47:19.706Z,15.93
2019-05-22T02:49:48.986Z,17.87
2019-05-22T02:52:17.915Z,19.03
2019-05-22T02:54:47.561Z,19.03
2019-05-22T02:57:16.984Z,19.83
2019-05-22T02:59:47.233Z,21.03
2019-05-22T03:02:16.947Z,21.13
2019-05-22T03:05:01.556Z,21.80
2019-05-22T03:07:31.872Z,22.33
2019-05-22T03:10:02.000Z,21.87
2019-05-22T03:12:32.910Z,22.17
2019-05-22T03:15:02.585Z,23.07
2019-05-22T03:17:32.291Z,22.40
2019-05-22T03:20:04.707Z,22.03
2019-05-22T03:22:42.524Z,21.30
2019-05-22T03:25:13.695Z,21.30
2019-05-22T03:27:46.148Z,20.27
2019-05-22T03:30:21.754Z,19.97
2019-05-22T03:32:52.419Z,19.63
2019-05-22T03:35:22.820Z,20.40
2019-05-22T03:37:53.478Z,18.00
2019-05-22T03:40:23.004Z,19.27
2019-05-22T03:42:54.060Z,18.33
2019-05-22T03:45:24.076Z,17.97
2019-05-22T03:47:54.532Z,18.07
2019-05-22T03:50:24.248Z,18.97
2019-05-22T03:52:57.110Z,18.83
2019-05-22T03:55:28.303Z,19.03
2019-05-22T03:57:57.665Z,19.17
2019-05-22T04:00:28.213Z,17.93
2019-05-22T04:02:57.372Z,19.07
2019-05-22T04:05:28.067Z,18.23
2019-05-22T04:07:58.619Z,19.60
2019-05-22T04:10:30.395Z,19.93
2019-05-22T04:13:00.816Z,20.13
2019-05-22T04:15:29.965Z,21.10
2019-05-22T04:18:02.544Z,21.40
2019-05-22T04:20:31.866Z,20.97
2019-05-22T04:23:01.119Z,22.17
2019-05-22T04:25:30.942Z,20.37
2019-05-22T04:28:01.153Z,20.33
2019-05-22T04:30:30.090Z,18.70
2019-05-22T04:32:59.723Z,19.17
2019-05-22T04:35:29.046Z,19.63
2019-05-22T04:37:59.005Z,19.90
2019-05-22T04:40:37.387Z,18.77
2019-05-22T04:43:07.142Z,18.73
2019-05-22T04:45:36.153Z,16.93
2019-05-22T04:48:05.722Z,17.93
2019-05-22T04:50:35.389Z,17.83
2019-05-22T04:53:05.541Z,16.03
2019-05-22T04:55:35.052Z,16.00
2019-05-22T04:58:07.352Z,15.33
2019-05-22T05:00:37.079Z,16.13
2019-05-22T05:03:06.944Z,14.53
2019-05-22T05:05:50.135Z,15.33
2019-05-22T05:08:19.620Z,13.70
2019-05-22T05:10:50.497Z,13.70
2019-05-22T05:13:20.563Z,12.30
2019-05-22T05:15:49.481Z,12.20
2019-05-22T05:18:18.427Z,12.10
2019-05-22T05:20:47.447Z,13.33
2019-05-22T05:23:16.799Z,11.87
2019-05-22T05:25:45.766Z,12.33
2019-05-22T05:28:15.621Z,12.63
2019-05-22T05:30:44.836Z,13.60
2019-05-22T05:33:14.201Z,13.90
2019-05-22T05:35:44.220Z,13.80
2019-05-22T05:38:14.269Z,14.73
2019-05-22T05:40:43.815Z,11.30
2019-05-22T05:43:15.360Z,12.20
2019-05-22T05:45:46.475Z,12.00
2019-05-22T05:48:18.762Z,12.23
2019-05-22T05:51:12.556Z,13.20
2019-05-22T05:54:02.935Z,13.50
2019-05-22T05:56:33.925Z,12.70
2019-05-22T05:59:04.791Z,12.87
2019-05-22T06:01:35.729Z,12.30
2019-05-22T06:04:05.509Z,12.70
2019-05-22T06:06:43.273Z,13.27
2019-05-22T06:09:15.342Z,12.93
2019-05-22T06:11:48.879Z,13.40
2019-05-22T06:14:21.025Z,13.00
2019-05-22T06:16:54.453Z,14.13
2019-05-22T06:19:24.135Z,15.20
2019-05-22T06:21:53.771Z,14.20
2019-05-22T06:24:26.864Z,15.10
2019-05-22T06:27:03.168Z,14.17
2019-05-22T06:29:36.457Z,13.83
2019-05-22T06:32:10.364Z,14.50
2019-05-22T06:34:39.963Z,14.67
2019-05-22T06:37:29.870Z,13.37
2019-05-22T06:40:00.438Z,13.83
2019-05-22T06:42:29.859Z,14.60
2019-05-22T06:44:58.886Z,14.07
2019-05-22T06:47:28.947Z,12.73
2019-05-22T06:49:58.772Z,11.50
2019-05-22T06:52:28.272Z,12.93
2019-05-22T06:54:57.762Z,13.83
2019-05-22T06:57:27.631Z,11.77
2019-05-22T07:00:12.316Z,12.27
2019-05-22T07:02:30.669Z,11.93
2019-05-22T07:04:59.723Z,12.00
2019-05-22T07:07:29.474Z,11.53
2019-05-22T07:09:59.189Z,11.80
2019-05-22T07:12:29.377Z,11.77
2019-05-22T07:15:11.363Z,10.53
2019-05-22T07:17:40.620Z,13.10
2019-05-22T07:20:11.555Z,12.20
2019-05-22T07:22:40.610Z,12.03
2019-05-22T07:25:09.725Z,11.53
2019-05-22T07:27:39.239Z,12.00
2019-05-22T07:30:09.345Z,12.27
2019-05-22T07:32:38.414Z,12.57
2019-05-22T07:35:08.625Z,11.73
2019-05-22T07:37:45.415Z,10.50
2019-05-22T07:40:15.220Z,12.57
2019-05-22T07:42:45.046Z,13.17
2019-05-22T07:45:16.495Z,13.47
2019-05-22T07:47:47.885Z,13.20
2019-05-22T07:50:19.561Z,13.17
2019-05-22T07:52:50.843Z,13.10
2019-05-22T07:55:24.899Z,14.20
2019-05-22T07:58:09.481Z,14.50
2019-05-22T08:00:46.296Z,13.17
2019-05-22T08:03:19.558Z,14.10
2019-05-22T08:05:55.426Z,13.50
2019-05-22T08:08:26.176Z,12.83
2019-05-22T08:10:56.620Z,11.97
2019-05-22T08:13:26.699Z,11.83
2019-05-22T08:15:55.880Z,10.70
2019-05-22T08:18:28.579Z,9.97
2019-05-22T08:20:58.288Z,9.90
2019-05-22T08:23:28.655Z,9.73
2019-05-22T08:25:59.569Z,9.60
2019-05-22T08:28:31.310Z,10.17
2019-05-22T08:31:01.004Z,9.40
2019-05-22T08:33:32.039Z,8.60
2019-05-22T08:36:01.641Z,9.20
2019-05-22T08:38:32.800Z,8.60
2019-05-22T08:41:04.618Z,8.00
2019-05-22T08:43:52.614Z,9.20
2019-05-22T08:46:06.760Z,7.97
2019-05-22T08:48:38.817Z,7.37
2019-05-22T08:51:10.049Z,7.90
2019-05-22T08:53:47.735Z,7.67
2019-05-22T08:56:11.289Z,7.50
2019-05-22T08:58:40.636Z,7.10
2019-05-22T09:01:10.614Z,6.70
2019-05-22T09:03:39.712Z,6.07
2019-05-22T09:06:09.211Z,6.43
2019-05-22T09:08:38.312Z,6.57
2019-05-22T09:11:07.423Z,6.43
2019-05-22T09:13:36.883Z,6.33
2019-05-22T09:16:06.490Z,6.83
2019-05-22T09:18:35.485Z,6.23
2019-05-22T09:21:04.581Z,5.80
2019-05-22T09:23:35.705Z,6.30
2019-05-22T09:26:06.049Z,5.93
2019-05-22T09:28:35.012Z,6.53
2019-05-22T09:31:05.591Z,5.90
2019-05-22T09:33:36.182Z,5.43
2019-05-22T09:36:06.126Z,5.97
2019-05-22T09:38:35.310Z,4.90
2019-05-22T09:41:05.769Z,4.97
2019-05-22T09:43:34.818Z,4.90
2019-05-22T09:46:04.211Z,4.60
2019-05-22T09:48:35.231Z,5.63
2019-05-22T09:51:04.249Z,5.37
2019-05-22T09:53:33.755Z,5.07
2019-05-22T09:56:03.899Z,5.63
2019-05-22T09:58:33.500Z,5.37
2019-05-22T10:01:02.769Z,4.50
2019-05-22T10:03:31.674Z,5.73
2019-05-22T10:06:01.066Z,4.53
2019-05-22T10:08:30.755Z,4.93
2019-05-22T10:10:59.706Z,5.10
2019-05-22T10:13:29.442Z,4.43
2019-05-22T10:15:58.892Z,4.33
2019-05-22T10:18:27.833Z,4.80
2019-05-22T10:20:57.555Z,4.20
2019-05-22T10:23:26.850Z,4.30
2019-05-22T10:25:56.011Z,4.50
2019-05-22T10:28:24.919Z,4.47
2019-05-22T10:30:55.399Z,3.87
2019-05-22T10:33:25.221Z,3.80
2019-05-22T10:35:54.272Z,4.07
2019-05-22T10:38:23.486Z,3.97
2019-05-22T10:40:52.541Z,3.60
2019-05-22T10:43:21.468Z,3.40
2019-05-22T10:45:50.553Z,3.80
2019-05-22T10:48:19.512Z,3.50
2019-05-22T10:51:08.054Z,3.27
2019-05-22T10:53:38.395Z,3.50
2019-05-22T10:56:07.622Z,3.33
2019-05-22T10:58:36.668Z,3.33
2019-05-22T11:01:06.317Z,3.40
2019-05-22T11:03:35.330Z,3.50
2019-05-22T11:06:08.120Z,3.13
2019-05-22T11:08:38.203Z,3.23
2019-05-22T11:11:10.956Z,3.73
2019-05-22T11:13:41.651Z,3.17
2019-05-22T11:16:12.915Z,3.20
2019-05-22T11:18:42.577Z,3.40
2019-05-22T11:21:15.130Z,2.83
2019-05-22T11:23:52.093Z,3.40
2019-05-22T11:26:21.150Z,3.63
2019-05-22T11:28:50.493Z,3.30
2019-05-22T11:31:22.705Z,3.70
2019-05-22T11:33:52.967Z,3.20
2019-05-22T11:36:23.222Z,3.67
2019-05-22T11:38:52.180Z,3.97
2019-05-22T11:41:21.380Z,3.27
2019-05-22T11:43:51.044Z,3.00
2019-05-22T11:46:20.309Z,3.17
2019-05-22T11:48:49.269Z,3.10
2019-05-22T11:51:20.527Z,3.20
2019-05-22T11:54:07.498Z,3.87
2019-05-22T11:56:21.284Z,3.83
2019-05-22T11:58:51.278Z,3.30
2019-05-22T12:01:21.166Z,2.70
2019-05-22T12:03:51.227Z,3.20
2019-05-22T12:06:20.427Z,3.50
2019-05-22T12:08:50.183Z,3.30
2019-05-22T12:11:22.230Z,2.73
2019-05-22T12:13:54.964Z,2.90
2019-05-22T12:16:24.437Z,2.77
2019-05-22T12:18:54.244Z,3.00
2019-05-22T12:21:23.621Z,2.83
2019-05-22T12:23:52.765Z,2.57
2019-05-22T12:26:22.156Z,2.40
2019-05-22T12:28:51.267Z,2.70
2019-05-22T12:31:20.804Z,2.90
2019-05-22T12:33:49.830Z,2.13
2019-05-22T12:36:18.963Z,2.43
2019-05-22T12:38:48.462Z,2.23
2019-05-22T12:41:20.128Z,3.07
2019-05-22T12:43:49.479Z,3.13
2019-05-22T12:46:19.980Z,2.33
2019-05-22T12:48:49.177Z,2.73
2019-05-22T12:51:20.354Z,2.50
2019-05-22T12:53:49.819Z,2.73
2019-05-22T12:56:21.376Z,2.77
2019-05-22T12:58:53.197Z,2.80
2019-05-22T13:01:23.815Z,2.90
2019-05-22T13:03:53.931Z,2.67
2019-05-22T13:06:24.733Z,2.67
2019-05-22T13:08:55.301Z,2.97
2019-05-22T13:11:27.241Z,2.93
2019-05-22T13:13:57.367Z,2.40
2019-05-22T13:16:27.808Z,3.13
2019-05-22T13:18:59.270Z,2.77
2019-05-22T13:21:33.587Z,2.90
2019-05-22T13:24:07.689Z,2.80
2019-05-22T13:26:42.017Z,2.50
2019-05-22T13:29:15.005Z,2.47
2019-05-22T13:31:47.059Z,2.00
2019-05-22T13:34:20.756Z,2.50
2019-05-22T13:36:51.843Z,2.30
2019-05-22T13:39:24.024Z,2.27
2019-05-22T13:41:55.725Z,2.03
2019-05-22T13:44:28.217Z,1.90
2019-05-22T13:46:57.978Z,2.23
2019-05-22T13:49:28.685Z,2.20
2019-05-22T13:51:57.799Z,1.90
2019-05-22T13:54:27.160Z,2.40
2019-05-22T13:56:58.998Z,2.33
2019-05-22T13:59:28.047Z,1.63
2019-05-22T14:01:57.295Z,2.10
2019-05-22T14:04:26.242Z,1.50
2019-05-22T14:06:55.461Z,2.10
2019-05-22T14:09:25.276Z,1.80
2019-05-22T14:11:54.950Z,1.80
2019-05-22T14:14:24.819Z,1.47
2019-05-22T14:16:57.153Z,1.60
2019-05-22T14:19:26.459Z,1.43
2019-05-22T14:21:55.582Z,1.47
2019-05-22T14:24:24.720Z,1.90
2019-05-22T14:26:53.629Z,1.47
2019-05-22T14:29:22.598Z,1.53
2019-05-22T14:31:51.710Z,1.30
2019-05-22T14:34:21.427Z,1.50
2019-05-22T14:36:52.406Z,1.50
2019-05-22T14:39:25.726Z,1.20
2019-05-22T14:41:57.378Z,1.30
2019-05-22T14:44:27.481Z,1.40
2019-05-22T14:47:12.221Z,1.30
2019-05-22T14:49:31.574Z,1.20
2019-05-22T14:52:02.766Z,1.20
2019-05-22T14:54:32.399Z,1.23
2019-05-22T14:57:01.645Z,1.10
2019-05-22T14:59:31.065Z,1.20
2019-05-22T15:02:00.310Z,1.20
2019-05-22T15:04:31.259Z,1.27
2019-05-22T15:07:00.411Z,0.80
2019-05-22T15:09:29.345Z,1.20
2019-05-22T15:11:58.318Z,1.00
2019-05-22T15:14:27.935Z,1.10
2019-05-22T15:16:57.185Z,1.20
2019-05-22T15:19:26.283Z,1.17
2019-05-22T15:21:55.244Z,1.10
2019-05-22T15:24:24.854Z,1.10
2019-05-22T15:26:54.013Z,1.30
2019-05-22T15:29:23.052Z,1.30
2019-05-22T15:31:52.607Z,1.43
2019-05-22T15:34:22.322Z,1.43
2019-05-22T15:36:51.281Z,0.97
2019-05-22T15:39:24.197Z,1.30
2019-05-22T15:41:54.057Z,1.27
2019-05-22T15:44:23.563Z,1.07
2019-05-22T15:46:52.807Z,1.10
2019-05-22T15:49:22.826Z,1.13
2019-05-22T15:51:53.577Z,1.33
2019-05-22T15:54:23.610Z,1.13
2019-05-22T15:56:55.182Z,1.30
2019-05-22T15:59:25.889Z,1.60
2019-05-22T16:01:55.224Z,1.57
2019-05-22T16:04:24.529Z,1.17
2019-05-22T16:06:53.673Z,1.20
2019-05-22T16:09:25.303Z,1.53
2019-05-22T16:11:55.062Z,1.63
2019-05-22T16:14:25.951Z,1.37
2019-05-22T16:16:56.805Z,1.20
2019-05-22T16:19:27.712Z,1.10
2019-05-22T16:21:59.798Z,1.10
2019-05-22T16:24:29.208Z,1.30
2019-05-22T16:26:58.418Z,1.10
2019-05-22T16:29:28.681Z,1.53
2019-05-22T16:32:00.620Z,1.43
2019-05-22T16:34:32.220Z,1.23
2019-05-22T16:37:03.987Z,1.50
2019-05-22T16:39:32.689Z,1.03
2019-05-22T16:42:03.227Z,1.00
2019-05-22T16:44:33.261Z,1.77
2019-05-22T16:47:04.311Z,1.37
2019-05-22T16:49:33.779Z,1.40
2019-05-22T16:52:07.180Z,1.50
2019-05-22T16:54:39.484Z,1.13
2019-05-22T16:57:10.595Z,1.27
2019-05-22T16:59:41.930Z,1.30
2019-05-22T17:02:13.385Z,1.10
2019-05-22T17:04:42.571Z,0.93
2019-05-22T17:07:12.495Z,0.87
2019-05-22T17:09:43.460Z,1.17
2019-05-22T17:12:14.193Z,1.33
2019-05-22T17:14:44.932Z,1.10
2019-05-22T17:17:16.801Z,1.20
2019-05-22T17:19:46.795Z,1.10
2019-05-22T17:22:17.035Z,1.33
2019-05-22T17:24:47.134Z,1.30
2019-05-22T17:27:17.342Z,1.10
2019-05-22T17:29:48.553Z,1.13
2019-05-22T17:32:17.864Z,1.00
2019-05-22T17:34:46.920Z,1.20
2019-05-22T17:37:16.117Z,1.00
2019-05-22T17:39:47.514Z,1.00
2019-05-22T17:42:22.165Z,0.90
2019-05-22T17:44:53.792Z,1.13
2019-05-22T17:47:25.229Z,1.07
2019-05-22T17:49:56.944Z,1.00
2019-05-22T17:52:26.341Z,0.83
2019-05-22T17:54:56.206Z,1.30
2019-05-22T17:57:25.395Z,1.17
2019-05-22T17:59:55.942Z,1.10
2019-05-22T18:02:26.523Z,1.20
2019-05-22T18:04:55.603Z,1.00
2019-05-22T18:07:26.515Z,1.07
2019-05-22T18:09:55.742Z,0.97
2019-05-22T18:12:24.742Z,1.13
2019-05-22T18:14:54.201Z,1.20
2019-05-22T18:17:26.676Z,1.13
2019-05-22T18:20:03.757Z,1.00
2019-05-22T18:22:33.671Z,1.50
2019-05-22T18:25:02.960Z,1.40
2019-05-22T18:27:32.018Z,0.90
2019-05-22T18:30:00.959Z,1.20
2019-05-22T18:32:31.648Z,1.00
2019-05-22T18:35:00.933Z,1.20
2019-05-22T18:37:29.827Z,1.00
2019-05-22T18:39:58.801Z,0.87
2019-05-22T18:42:27.996Z,1.13
2019-05-22T18:44:57.060Z,1.10
2019-05-22T18:47:26.172Z,1.10
2019-05-22T18:49:55.124Z,0.93
2019-05-22T18:52:39.841Z,1.17
2019-05-22T18:54:55.442Z,1.07
2019-05-22T18:57:24.768Z,1.03
2019-05-22T19:00:00.417Z,1.00
2019-05-22T19:02:25.140Z,1.17
2019-05-22T19:04:54.087Z,1.00
2019-05-22T19:07:23.002Z,0.90
2019-05-22T19:09:51.963Z,1.10
2019-05-22T19:12:20.867Z,1.03
2019-05-22T19:14:49.815Z,1.00
2019-05-22T19:17:18.919Z,0.90
2019-05-22T19:19:48.873Z,0.90
2019-05-22T19:22:18.391Z,1.17
2019-05-22T19:24:47.307Z,0.90
2019-05-22T19:27:16.264Z,0.77
2019-05-22T19:29:45.470Z,1.20
2019-05-22T19:32:14.735Z,0.90
2019-05-22T19:34:43.636Z,1.00
2019-05-22T19:37:12.574Z,0.90
2019-05-22T19:39:41.886Z,1.00
2019-05-22T19:42:10.955Z,1.07
2019-05-22T19:44:40.158Z,1.17
2019-05-22T19:47:09.211Z,1.00
2019-05-22T19:49:38.234Z,0.90
2019-05-22T19:52:07.784Z,0.90
2019-05-22T19:54:36.887Z,1.10
2019-05-22T19:57:05.941Z,0.80
2019-05-22T19:59:35.444Z,1.10
2019-05-22T20:02:05.099Z,1.30
2019-05-22T20:04:33.996Z,1.10
2019-05-22T20:07:02.954Z,1.07
2019-05-22T20:09:31.860Z,1.50
2019-05-22T20:12:02.183Z,1.13
2019-05-22T20:14:31.220Z,1.37
2019-05-22T20:17:00.455Z,1.47
2019-05-22T20:19:29.568Z,0.93
2019-05-22T20:22:00.544Z,1.17
2019-05-22T20:24:30.329Z,1.33
2019-05-22T20:26:59.283Z,1.30
2019-05-22T20:29:28.789Z,1.20
2019-05-22T20:31:57.936Z,1.30
2019-05-22T20:34:27.737Z,1.70
2019-05-22T20:36:57.890Z,1.50
2019-05-22T20:39:29.759Z,1.23
2019-05-22T20:41:58.478Z,1.13
2019-05-22T20:44:28.301Z,1.43
2019-05-22T20:46:57.655Z,1.37
2019-05-22T20:49:27.362Z,1.70
2019-05-22T20:51:57.009Z,1.27
2019-05-22T20:54:26.807Z,1.30
2019-05-22T20:56:57.258Z,1.37
2019-05-22T20:59:26.562Z,1.50
2019-05-22T21:01:56.087Z,1.83
2019-05-22T21:04:25.532Z,1.80
2019-05-22T21:07:00.542Z,1.90
2019-05-22T21:09:29.993Z,2.10
2019-05-22T21:11:58.890Z,1.80
2019-05-22T21:14:28.848Z,1.70
2019-05-22T21:16:58.339Z,2.23
2019-05-22T21:19:27.878Z,1.90
2019-05-22T21:21:58.006Z,2.00
2019-05-22T21:24:28.160Z,2.20
2019-05-22T21:26:57.373Z,2.27
2019-05-22T21:29:26.307Z,1.73
2019-05-22T21:31:55.231Z,1.70
2019-05-22T21:34:25.176Z,1.63
2019-05-22T21:36:54.095Z,2.37
2019-05-22T21:39:23.731Z,2.70
2019-05-22T21:41:53.036Z,2.90
2019-05-22T21:44:22.180Z,2.73
2019-05-22T21:46:52.087Z,1.87
2019-05-22T21:49:21.537Z,2.50
2019-05-22T21:51:50.436Z,2.60
2019-05-22T21:54:19.886Z,4.20
2019-05-22T21:56:49.085Z,3.67
2019-05-22T21:59:18.138Z,3.70
2019-05-22T22:01:48.618Z,3.63
2019-05-22T22:04:20.780Z,3.23
2019-05-22T22:06:50.996Z,3.10
2019-05-22T22:09:20.635Z,2.80
2019-05-22T22:11:50.036Z,2.83
2019-05-22T22:14:19.688Z,2.67
2019-05-22T22:16:49.993Z,2.73
2019-05-22T22:19:20.235Z,3.30
2019-05-22T22:21:49.867Z,3.10
2019-05-22T22:24:19.014Z,3.07
2019-05-22T22:26:48.921Z,3.30
2019-05-22T22:29:18.071Z,2.87
2019-05-22T22:31:48.581Z,3.27
2019-05-22T22:34:20.472Z,3.13
2019-05-22T22:36:50.478Z,3.70
2019-05-22T22:39:21.708Z,4.30
2019-05-22T22:41:51.112Z,4.20
2019-05-22T22:44:21.578Z,5.37
2019-05-22T22:46:52.767Z,4.87
2019-05-22T22:49:23.480Z,4.07
2019-05-22T22:51:54.334Z,4.53
2019-05-22T22:54:23.582Z,3.53
2019-05-22T22:56:53.185Z,4.37
2019-05-22T22:59:22.567Z,4.67
2019-05-22T23:01:54.197Z,5.00
2019-05-22T23:04:26.944Z,4.50
2019-05-22T23:06:58.905Z,4.90
2019-05-22T23:09:28.053Z,4.10
2019-05-22T23:11:57.859Z,4.20
2019-05-22T23:14:28.003Z,4.73
2019-05-22T23:16:57.512Z,4.97
2019-05-22T23:19:34.526Z,5.50
2019-05-22T23:22:03.564Z,5.17
2019-05-22T23:24:34.730Z,4.60
2019-05-22T23:27:05.220Z,5.00
2019-05-22T23:29:34.566Z,5.00
2019-05-22T23:32:04.185Z,4.77
2019-05-22T23:34:33.224Z,4.87
2019-05-22T23:37:02.947Z,5.00
2019-05-22T23:39:32.806Z,5.00
2019-05-22T23:42:05.050Z,5.10
2019-05-22T23:44:36.996Z,4.87
2019-05-22T23:47:07.468Z,4.63
2019-05-22T23:49:37.416Z,4.70
2019-05-22T23:52:07.922Z,5.07
2019-05-22T23:54:37.535Z,4.70
2019-05-22T23:57:06.482Z,4.73
2019-05-22T23:59:36.999Z,5.30
